Time;durP1;ratioP1;P1;durP2;ratioP2;P2;SDS_P1;SDS_P2;PMS_P1;PMS_P2;Temp;Humidity;BMP_temperature;BMP_pressure;BME280_temperature;BME280_humidity;BME280_pressure;Samples;Min_cycle;Max_cycle;Signal;HPM_P1;HPM_P2
2022/10/25 00:00:43;;;;;;;38.00;36.58;;;11.80;92.50;;;;;;5067465;28;20484;-79
2022/10/25 00:03:11;;;;;;;38.35;36.92;;;11.80;92.50;;;;;;5067575;28;20354;-78
2022/10/25 00:05:38;;;;;;;39.53;38.03;;;11.80;92.50;;;;;;5067346;28;20510;-77
2022/10/25 00:08:04;;;;;;;37.42;36.03;;;11.80;92.50;;;;;;5065934;28;20032;-77
2022/10/25 00:10:30;;;;;;;39.05;37.55;;;11.70;92.40;;;;;;5065960;28;20040;-77
2022/10/25 00:12:56;;;;;;;37.70;36.30;;;11.70;92.50;;;;;;5065863;28;20128;-77
2022/10/25 00:15:22;;;;;;;39.25;37.75;;;11.70;92.50;;;;;;5067259;28;20070;-77
2022/10/25 00:17:48;;;;;;;;;;;11.70;92.50;;;;;;5067998;28;20021;-77
2022/10/25 00:20:14;;;;;;;38.35;36.85;;;11.70;92.50;;;;;;5067159;28;19949;-77
2022/10/25 00:22:40;;;;;;;39.10;37.60;;;11.70;92.50;;;;;;5067210;28;20024;-77
2022/10/25 00:25:08;;;;;;;40.28;38.78;;;11.60;92.40;;;;;;5067209;28;20024;-77
2022/10/25 00:27:34;;;;;;;37.80;36.40;;;11.60;92.50;;;;;;5066830;28;20048;-77
2022/10/25 00:30:00;;;;;;;37.53;36.13;;;11.70;92.50;;;;;;5066192;28;20060;-72
2022/10/25 00:32:26;;;;;;;38.17;36.78;;;11.60;92.50;;;;;;5067036;28;20025;-76
2022/10/25 00:34:52;;;;;;;39.08;37.58;;;11.60;92.50;;;;;;5067117;28;20190;-74
2022/10/25 00:37:17;;;;;;;36.13;34.72;;;11.70;92.50;;;;;;5066985;28;20458;-74
2022/10/25 00:39:45;;;;;;;40.78;39.28;;;11.60;92.50;;;;;;5049175;28;20028;-74
2022/10/25 00:42:20;;;;;;;37.63;36.22;;;11.60;92.50;;;;;;5066784;28;20082;-74
2022/10/25 00:44:50;;;;;;;37.50;36.10;;;11.70;92.50;;;;;;5067028;28;20110;-74
2022/10/25 00:47:21;;;;;;;35.80;34.42;;;11.70;92.50;;;;;;5066940;28;20035;-74
2022/10/25 00:49:55;;;;;;;41.17;39.58;;;11.60;92.40;;;;;;5065627;28;20035;-74
2022/10/25 00:52:21;;;;;;;38.63;37.13;;;11.60;92.40;;;;;;5066824;28;20449;-74
2022/10/25 00:54:52;;;;;;;38.67;37.17;;;11.60;92.40;;;;;;5066811;28;20071;-74
2022/10/25 00:57:31;;;;;;;39.45;37.95;;;11.60;92.40;;;;;;5067083;28;20025;-74
2022/10/25 00:59:59;;;;;;;36.08;34.67;;;11.60;92.50;;;;;;5066831;28;20036;-74
2022/10/25 01:02:25;;;;;;;37.25;35.85;;;11.50;92.40;;;;;;5066721;28;20392;-73
2022/10/25 01:04:52;;;;;;;37.55;36.15;;;11.50;92.50;;;;;;5065542;28;20037;-72
2022/10/25 01:07:18;;;;;;;36.70;35.30;;;11.50;92.50;;;;;;5065325;28;20575;-72
2022/10/25 01:09:44;;;;;;;36.85;35.45;;;11.50;92.50;;;;;;5069192;28;20129;-72
2022/10/25 01:12:10;;;;;;;36.63;35.22;;;11.50;92.50;;;;;;5070309;28;20035;-72
2022/10/25 01:14:37;;;;;;;36.20;34.80;;;11.50;92.50;;;;;;5069482;28;20375;-72
2022/10/25 01:17:21;;;;;;;35.00;33.70;;;11.50;92.50;;;;;;5070180;28;20037;-72
2022/10/25 01:20:01;;;;;;;37.15;35.75;;;11.50;92.50;;;;;;5068910;28;20078;-72
2022/10/25 01:22:49;;;;;;;35.13;33.83;;;11.50;92.60;;;;;;5070192;28;20028;-79
2022/10/25 01:25:56;;;;;;;37.13;35.72;;;11.50;92.50;;;;;;5070340;28;20024;-78
2022/10/25 01:28:46;;;;;;;35.60;34.23;;;11.50;92.60;;;;;;5033217;28;20053;-78
2022/10/25 01:31:21;;;;;;;35.47;34.13;;;11.50;92.50;;;;;;5069166;28;20029;-78
2022/10/25 01:33:58;;;;;;;38.45;36.95;;;11.50;92.50;;;;;;5070140;28;20024;-78
2022/10/25 01:36:48;;;;;;;34.13;32.83;;;11.40;92.50;;;;;;5070041;28;20019;-79
2022/10/25 01:39:28;;;;;;;32.20;31.00;;;11.50;92.50;;;;;;5068681;28;20074;-79
2022/10/25 01:42:02;;;;;;;33.90;32.60;;;11.50;92.50;;;;;;5069951;28;20166;-78
2022/10/25 01:44:53;;;;;;;34.35;33.05;;;11.40;92.50;;;;;;5068558;28;20472;-78
2022/10/25 01:47:45;;;;;;;32.80;31.52;;;11.40;92.50;;;;;;5069820;28;20082;-79
2022/10/25 01:50:17;;;;;;;32.60;31.35;;;11.40;92.60;;;;;;5068442;28;20118;-79
2022/10/25 01:52:43;;;;;;;34.03;32.72;;;11.40;92.80;;;;;;5069746;28;20032;-79
2022/10/25 01:55:12;;;;;;;33.00;31.70;;;11.40;92.60;;;;;;5069799;28;20029;-79
2022/10/25 01:57:50;;;;;;;33.75;32.45;;;11.40;92.60;;;;;;5069426;28;20082;-79
2022/10/25 02:00:21;;;;;;;31.33;30.13;;;11.40;92.60;;;;;;5068388;28;20479;-79
2022/10/25 02:03:09;;;;;;;31.48;30.27;;;11.50;92.60;;;;;;5069479;28;20059;-79
2022/10/25 02:05:54;;;;;;;29.10;28.00;;;11.40;92.50;;;;;;5069598;28;20513;-79
2022/10/25 02:08:35;;;;;;;29.48;28.38;;;11.50;92.60;;;;;;5069540;28;20116;-79
2022/10/25 02:11:16;;;;;;;32.78;31.50;;;11.40;92.50;;;;;;5069289;28;20064;-79
2022/10/25 02:13:57;;;;;;;33.30;32.00;;;11.40;92.50;;;;;;5069197;28;20504;-75
2022/10/25 02:16:31;;;;;;;31.75;30.55;;;11.40;92.50;;;;;;5069252;28;20028;-75
2022/10/25 02:19:00;;;;;;;30.65;29.45;;;11.40;92.60;;;;;;5068599;28;20031;-75
2022/10/25 02:21:29;;;;;;;29.95;28.80;;;11.40;92.60;;;;;;5068773;28;20103;-75
2022/10/25 02:23:57;;;;;;;31.15;29.95;;;11.50;92.60;;;;;;5067711;28;20047;-75
2022/10/25 02:26:23;;;;;;;30.17;28.98;;;11.50;92.60;;;;;;5067347;28;20056;-75
2022/10/25 02:28:50;;;;;;;30.80;29.60;;;11.50;92.60;;;;;;5068947;28;20400;-75
2022/10/25 02:31:18;;;;;;;31.90;30.70;;;11.50;92.50;;;;;;5067606;28;20028;-75
2022/10/25 02:33:46;;;;;;;29.05;27.95;;;11.50;92.50;;;;;;5068936;28;20458;-75
2022/10/25 02:36:14;;;;;;;28.65;27.55;;;11.50;92.50;;;;;;5068783;28;20526;-75
2022/10/25 02:38:42;;;;;;;29.45;28.35;;;11.40;92.50;;;;;;5068713;28;20111;-74
2022/10/25 02:41:08;;;;;;;27.42;26.33;;;11.40;92.50;;;;;;5067117;28;20032;-74
2022/10/25 02:43:34;;;;;;;26.25;25.25;;;11.40;92.50;;;;;;5068625;28;20039;-75
2022/10/25 02:46:08;;;;;;;29.52;28.40;;;11.40;92.50;;;;;;5068578;28;20125;-75
2022/10/25 02:48:34;;;;;;;29.23;28.13;;;11.40;92.50;;;;;;5068021;28;20024;-75
2022/10/25 02:51:00;;;;;;;27.38;26.30;;;11.40;92.50;;;;;;5068869;28;20025;-75
2022/10/25 02:53:25;;;;;;;28.55;27.45;;;11.40;92.50;;;;;;5067281;28;20499;-75
2022/10/25 02:56:00;;;;;;;26.55;25.55;;;11.40;92.50;;;;;;5068340;28;20441;-75
2022/10/25 02:58:29;;;;;;;27.85;26.75;;;11.40;92.50;;;;;;5068326;28;20020;-75
2022/10/25 03:00:55;;;;;;;28.92;27.83;;;11.40;92.50;;;;;;5068230;28;20020;-75
2022/10/25 03:03:20;;;;;;;28.42;27.33;;;11.40;92.60;;;;;;5050420;28;20021;-75
2022/10/25 03:05:46;;;;;;;28.35;27.25;;;11.30;92.60;;;;;;5066709;28;20388;-75
2022/10/25 03:08:12;;;;;;;26.92;25.90;;;11.30;92.60;;;;;;5068200;28;20029;-75
2022/10/25 03:10:37;;;;;;;28.02;26.92;;;11.30;92.60;;;;;;5066783;28;20151;-75
2022/10/25 03:13:03;;;;;;;28.70;27.60;;;11.40;92.60;;;;;;5066712;28;20168;-75
2022/10/25 03:15:29;;;;;;;29.38;28.27;;;11.40;92.60;;;;;;5066714;28;20131;-75
2022/10/25 03:17:54;;;;;;;28.00;26.90;;;11.40;92.60;;;;;;5067990;28;20090;-75
2022/10/25 03:20:20;;;;;;;29.40;28.30;;;11.40;92.60;;;;;;5066756;28;20025;-75
2022/10/25 03:22:46;;;;;;;27.85;26.75;;;11.40;92.60;;;;;;5067743;28;20090;-75
2022/10/25 03:25:12;;;;;;;28.58;27.48;;;11.40;92.60;;;;;;5067865;28;20037;-75
2022/10/25 03:27:37;;;;;;;28.73;27.63;;;11.40;92.60;;;;;;5066246;28;20113;-75
2022/10/25 03:30:03;;;;;;;27.45;26.35;;;11.40;92.60;;;;;;5066465;28;20119;-75
2022/10/25 03:32:29;;;;;;;28.90;27.80;;;11.40;92.60;;;;;;5067428;28;20107;-75
2022/10/25 03:34:55;;;;;;;27.80;26.70;;;11.40;92.60;;;;;;5067735;28;20028;-75
2022/10/25 03:37:20;;;;;;;27.38;26.27;;;11.40;92.60;;;;;;5066384;28;20040;-75
2022/10/25 03:39:46;;;;;;;28.27;27.17;;;11.40;92.60;;;;;;5067628;28;20506;-75
2022/10/25 03:42:12;;;;;;;28.15;27.05;;;11.40;92.60;;;;;;5067573;28;20111;-75
2022/10/25 03:44:37;;;;;;;29.70;28.60;;;11.40;92.60;;;;;;5067644;28;20361;-73
2022/10/25 03:47:03;;;;;;;28.40;27.30;;;11.40;92.60;;;;;;5066245;28;20036;-73
2022/10/25 03:49:29;;;;;;;29.77;28.65;;;11.40;92.80;;;;;;5067446;28;20495;-73
2022/10/25 03:51:54;;;;;;;28.48;27.38;;;11.40;92.60;;;;;;5067413;28;20056;-73
2022/10/25 03:54:20;;;;;;;29.02;27.92;;;11.50;92.70;;;;;;5067456;28;20103;-73
2022/10/25 03:56:46;;;;;;;30.73;29.52;;;11.50;92.70;;;;;;5067412;28;20462;-73
2022/10/25 03:59:12;;;;;;;30.88;29.67;;;11.50;92.70;;;;;;5066048;28;20028;-73
2022/10/25 04:01:37;;;;;;;31.02;29.83;;;11.50;92.60;;;;;;5067219;28;20062;-73
2022/10/25 04:04:03;;;;;;;30.27;29.08;;;11.50;92.60;;;;;;5065917;28;20028;-73
2022/10/25 04:06:29;;;;;;;30.10;28.92;;;11.50;92.60;;;;;;5067356;28;20078;-73
2022/10/25 04:08:56;;;;;;;28.88;27.77;;;11.50;92.60;;;;;;5067362;28;20464;-73
2022/10/25 04:11:22;;;;;;;30.27;29.08;;;11.50;92.60;;;;;;5067356;28;20059;-73
2022/10/25 04:13:47;;;;;;;30.63;29.42;;;11.40;92.60;;;;;;5067368;28;20048;-74
2022/10/25 04:16:13;;;;;;;30.23;29.02;;;11.50;92.60;;;;;;5067432;28;20048;-73
2022/10/25 04:18:39;;;;;;;32.85;31.55;;;11.40;92.60;;;;;;5065968;28;20082;-73
2022/10/25 04:21:04;;;;;;;29.85;28.70;;;11.40;92.80;;;;;;5049275;28;20032;-73
2022/10/25 04:23:30;;;;;;;29.00;27.90;;;11.40;92.60;;;;;;5070512;28;20059;-73
2022/10/25 04:25:56;;;;;;;31.60;30.40;;;11.40;92.60;;;;;;5068172;28;20051;-73
2022/10/25 04:28:22;;;;;;;;;;;11.40;92.60;;;;;;5066167;28;20044;-73
2022/10/25 04:30:48;;;;;;;28.33;27.23;;;11.40;92.60;;;;;;5067105;28;19944;-74
2022/10/25 04:33:14;;;;;;;29.50;28.40;;;11.40;92.60;;;;;;5067074;28;20051;-73
2022/10/25 04:35:40;;;;;;;27.70;26.60;;;11.40;92.60;;;;;;5067008;28;20025;-73
2022/10/25 04:38:05;;;;;;;28.83;27.73;;;11.40;92.60;;;;;;5067093;28;20037;-73
2022/10/25 04:40:31;;;;;;;28.75;27.65;;;11.40;92.60;;;;;;5067190;28;20028;-79
2022/10/25 04:43:01;;;;;;;26.13;25.13;;;11.40;92.60;;;;;;5067012;28;20039;-79
2022/10/25 04:45:27;;;;;;;26.50;25.50;;;11.40;92.60;;;;;;5071211;28;20694;-79
2022/10/25 04:47:53;;;;;;;29.10;28.00;;;11.40;92.70;;;;;;5070940;28;20036;-79
2022/10/25 04:50:19;;;;;;;30.73;29.52;;;11.50;92.70;;;;;;5071012;28;20368;-75
2022/10/25 04:52:45;;;;;;;29.98;28.80;;;11.50;92.70;;;;;;5070666;28;20029;-75
2022/10/25 04:55:11;;;;;;;31.67;30.48;;;11.50;92.70;;;;;;5070656;28;20100;-75
2022/10/25 04:57:36;;;;;;;32.67;31.42;;;11.50;92.70;;;;;;5069228;28;20037;-75
2022/10/25 05:00:03;;;;;;;33.70;32.40;;;11.50;92.70;;;;;;5069240;28;20039;-75
2022/10/25 05:02:29;;;;;;;36.13;34.72;;;11.50;92.70;;;;;;5070368;28;20059;-75
2022/10/25 05:04:55;;;;;;;34.53;33.22;;;11.50;92.70;;;;;;5070419;28;20063;-75
2022/10/25 05:07:21;;;;;;;36.33;34.92;;;11.50;92.70;;;;;;5070393;28;20033;-75
2022/10/25 05:09:47;;;;;;;35.58;34.22;;;11.50;92.70;;;;;;5070397;28;20086;-75
2022/10/25 05:12:12;;;;;;;36.95;35.55;;;11.50;92.70;;;;;;5070279;28;20036;-75
2022/10/25 05:14:38;;;;;;;38.50;37.03;;;11.50;92.70;;;;;;5070654;28;20025;-75
2022/10/25 05:17:04;;;;;;;38.33;36.88;;;11.50;92.70;;;;;;5070211;28;20029;-75
2022/10/25 05:19:29;;;;;;;36.70;35.30;;;11.50;92.70;;;;;;5070551;28;20039;-74
2022/10/25 05:21:55;;;;;;;36.90;35.50;;;11.60;92.70;;;;;;5068860;28;20401;-75
2022/10/25 05:24:21;;;;;;;37.25;35.85;;;11.60;92.70;;;;;;5070167;28;20039;-75
2022/10/25 05:26:47;;;;;;;37.10;35.70;;;11.60;92.80;;;;;;5069825;28;20056;-75
2022/10/25 05:29:12;;;;;;;37.83;36.42;;;11.60;92.70;;;;;;5070111;28;20091;-75
2022/10/25 05:31:40;;;;;;;38.67;37.17;;;11.60;92.70;;;;;;5068626;28;20020;-75
2022/10/25 05:34:06;;;;;;;37.88;36.47;;;11.70;92.80;;;;;;5069904;28;20112;-75
2022/10/25 05:36:32;;;;;;;37.13;35.72;;;11.70;92.80;;;;;;5069801;28;20085;-75
2022/10/25 05:39:02;;;;;;;37.38;35.97;;;11.70;92.80;;;;;;5069960;28;20040;-79
2022/10/25 05:41:28;;;;;;;37.05;35.65;;;11.70;92.70;;;;;;5068795;28;20036;-73
2022/10/25 05:43:54;;;;;;;;;;;11.70;92.70;;;;;;5070140;28;20025;-72
2022/10/25 05:46:22;;;;;;;35.35;34.05;;;11.70;92.70;;;;;;5069629;28;19953;-73
2022/10/25 05:48:49;;;;;;;34.55;33.25;;;11.70;92.70;;;;;;5069561;28;20016;-73
2022/10/25 05:51:27;;;;;;;36.45;35.05;;;11.70;92.70;;;;;;5068294;28;20476;-73
2022/10/25 05:53:55;;;;;;;34.83;33.53;;;11.80;92.80;;;;;;5069569;28;20020;-73
2022/10/25 05:56:23;;;;;;;32.33;31.13;;;11.80;92.80;;;;;;5069455;28;20330;-73
2022/10/25 05:58:49;;;;;;;32.05;30.85;;;11.80;92.80;;;;;;5069384;28;20032;-73
2022/10/25 06:01:16;;;;;;;;;;;11.80;92.80;;;;;;5070465;28;20063;-73
2022/10/25 06:03:42;;;;;;;29.50;28.40;;;11.90;92.80;;;;;;5069258;28;19921;-73
2022/10/25 06:06:10;;;;;;;29.88;28.67;;;11.90;92.80;;;;;;5069958;28;20029;-74
2022/10/25 06:08:37;;;;;;;29.50;28.40;;;12.00;92.80;;;;;;5069463;28;20100;-80
2022/10/25 06:11:08;;;;;;;31.85;30.65;;;12.00;92.80;;;;;;5069643;28;20119;-80
2022/10/25 06:13:34;;;;;;;31.83;30.63;;;12.00;92.80;;;;;;5069365;28;20021;-79
2022/10/25 06:16:04;;;;;;;32.30;31.10;;;12.00;92.80;;;;;;5068634;28;20027;-77
2022/10/25 06:18:31;;;;;;;32.42;31.23;;;12.10;92.80;;;;;;5069402;28;20044;-79
2022/10/25 06:21:04;;;;;;;33.45;32.15;;;12.10;92.80;;;;;;5068048;28;20045;-78
2022/10/25 06:23:36;;;;;;;32.15;30.95;;;12.10;92.80;;;;;;5068012;28;20029;-79
2022/10/25 06:26:04;;;;;;;33.55;32.25;;;12.20;92.80;;;;;;5068955;28;20086;-78
2022/10/25 06:28:30;;;;;;;35.00;33.70;;;12.20;92.90;;;;;;5068867;28;20068;-79
2022/10/25 06:31:17;;;;;;;36.25;34.85;;;12.20;92.80;;;;;;5068877;28;20040;-79
2022/10/25 06:33:43;;;;;;;34.25;32.95;;;12.20;92.80;;;;;;5069415;28;20095;-78
2022/10/25 06:36:15;;;;;;;36.10;34.70;;;12.30;92.90;;;;;;5068057;28;20025;-78
2022/10/25 06:38:42;;;;;;;35.25;33.90;;;12.30;92.90;;;;;;5067552;28;20031;-79
2022/10/25 06:41:27;;;;;;;35.58;34.20;;;12.30;92.90;;;;;;5068393;28;20032;-79
2022/10/25 06:43:54;;;;;;;33.00;31.70;;;12.30;92.90;;;;;;5068901;28;20358;-77
2022/10/25 06:46:25;;;;;;;31.35;30.15;;;12.30;92.90;;;;;;5068406;28;20582;-79
2022/10/25 06:48:54;;;;;;;32.42;31.23;;;12.40;93.00;;;;;;5068508;28;20035;-79
2022/10/25 06:51:20;;;;;;;33.13;31.83;;;12.40;93.00;;;;;;5066809;28;20034;-73
2022/10/25 06:53:46;;;;;;;33.58;32.28;;;12.50;93.00;;;;;;5068009;28;20577;-73
2022/10/25 06:56:13;;;;;;;32.60;31.30;;;12.50;92.90;;;;;;5068132;28;20029;-73
2022/10/25 06:58:39;;;;;;;34.38;33.08;;;12.60;92.90;;;;;;5066858;28;20095;-73
2022/10/25 07:01:07;;;;;;;34.08;32.78;;;12.60;92.90;;;;;;5067298;28;20380;-74
2022/10/25 07:03:36;;;;;;;32.47;31.23;;;12.70;92.90;;;;;;5067737;28;20453;-73
2022/10/25 07:06:06;;;;;;;33.05;31.75;;;12.70;92.90;;;;;;5064999;28;20036;-73
2022/10/25 07:08:33;;;;;;;31.83;30.63;;;12.70;92.90;;;;;;5065780;28;20112;-73
2022/10/25 07:10:59;;;;;;;31.02;29.83;;;12.80;92.90;;;;;;5066291;28;20551;-73
2022/10/25 07:13:25;;;;;;;30.58;29.38;;;12.80;92.90;;;;;;5067769;28;20029;-72
2022/10/25 07:15:50;;;;;;;31.80;30.60;;;12.80;92.80;;;;;;5066212;28;20154;-73
2022/10/25 07:18:16;;;;;;;26.77;25.77;;;12.80;92.80;;;;;;5067183;28;20107;-72
2022/10/25 07:20:47;;;;;;;26.13;25.13;;;12.80;92.80;;;;;;5065889;28;20085;-73
2022/10/25 07:23:15;;;;;;;28.95;27.85;;;12.80;92.80;;;;;;5067396;28;20107;-73
2022/10/25 07:25:42;;;;;;;25.92;24.92;;;12.90;92.90;;;;;;5067317;28;20551;-73
2022/10/25 07:28:08;;;;;;;28.33;27.23;;;12.90;93.00;;;;;;5065417;28;20057;-74
2022/10/25 07:30:34;;;;;;;27.27;26.17;;;12.90;93.00;;;;;;5067502;28;20046;-73
2022/10/25 07:33:02;;;;;;;27.25;26.15;;;13.00;93.00;;;;;;5067369;28;20383;-72
2022/10/25 07:35:27;;;;;;;26.85;25.83;;;13.10;93.00;;;;;;5066421;28;20039;-72
2022/10/25 07:37:53;;;;;;;27.77;26.67;;;13.10;93.00;;;;;;5066876;28;20052;-73
2022/10/25 07:40:19;;;;;;;25.38;24.38;;;13.20;93.00;;;;;;5065701;28;20113;-73
2022/10/25 07:42:44;;;;;;;23.40;22.50;;;13.30;93.00;;;;;;5064982;28;20105;-73
2022/10/25 07:45:10;;;;;;;28.38;27.27;;;13.30;93.00;;;;;;5066366;28;20425;-73
2022/10/25 07:47:36;;;;;;;25.35;24.35;;;13.30;92.90;;;;;;5066767;28;20024;-73
2022/10/25 07:50:01;;;;;;;24.38;23.38;;;13.40;92.90;;;;;;5065197;28;20068;-73
2022/10/25 07:52:27;;;;;;;26.63;25.63;;;13.40;92.90;;;;;;5065298;28;20371;-74
2022/10/25 07:54:53;;;;;;;26.77;25.77;;;13.50;93.00;;;;;;5066654;28;20147;-73
2022/10/25 07:57:18;;;;;;;25.15;24.15;;;13.50;92.90;;;;;;5066552;28;20478;-73
2022/10/25 07:59:44;;;;;;;25.58;24.58;;;13.60;92.90;;;;;;5065151;28;20043;-73
2022/10/25 08:02:11;;;;;;;23.45;22.55;;;13.60;93.10;;;;;;5064787;28;20072;-75
2022/10/25 08:04:36;;;;;;;27.90;26.80;;;13.70;92.90;;;;;;5066687;28;20724;-75
2022/10/25 08:07:02;;;;;;;26.70;25.70;;;13.70;92.90;;;;;;5066649;28;20047;-75
2022/10/25 08:09:28;;;;;;;27.95;26.85;;;13.80;92.90;;;;;;5066527;28;20028;-76
2022/10/25 08:11:54;;;;;;;28.15;27.05;;;13.80;92.90;;;;;;5066575;28;20028;-75
2022/10/25 08:14:20;;;;;;;29.30;28.20;;;13.90;92.90;;;;;;5066367;28;20032;-75
2022/10/25 08:16:45;;;;;;;29.55;28.40;;;13.90;92.90;;;;;;5066459;28;20024;-75
2022/10/25 08:19:11;;;;;;;26.30;25.30;;;13.90;92.90;;;;;;5069809;28;20492;-75
2022/10/25 08:21:37;;;;;;;27.98;26.88;;;14.00;92.90;;;;;;5070434;28;20485;-75
2022/10/25 08:24:03;;;;;;;27.73;26.63;;;14.00;92.90;;;;;;5070705;28;20036;-75
2022/10/25 08:26:28;;;;;;;27.55;26.45;;;14.10;92.90;;;;;;5069824;28;20074;-74
2022/10/25 08:28:54;;;;;;;28.55;27.45;;;14.10;92.90;;;;;;5070317;28;20028;-74
2022/10/25 08:31:20;;;;;;;27.98;26.88;;;14.20;92.90;;;;;;5070390;28;20029;-74
2022/10/25 08:33:46;;;;;;;26.45;25.45;;;14.30;92.90;;;;;;5070482;28;20047;-74
2022/10/25 08:36:12;;;;;;;28.13;27.02;;;14.40;92.90;;;;;;5069122;28;20045;-74
2022/10/25 08:38:38;;;;;;;26.35;25.35;;;14.40;92.90;;;;;;5070470;28;20028;-74
2022/10/25 08:41:39;;;;;;;27.10;26.00;;;14.40;92.90;;;;;;5068598;28;20332;-74
2022/10/25 08:44:16;;;;;;;28.90;27.80;;;14.50;93.00;;;;;;5070354;28;20074;-74
2022/10/25 08:47:06;;;;;;;28.27;27.17;;;14.60;93.00;;;;;;5069992;28;20020;-74
2022/10/25 08:49:48;;;;;;;25.90;24.90;;;14.60;93.00;;;;;;5070273;28;20024;-74
2022/10/25 08:52:36;;;;;;;26.85;25.80;;;14.70;93.00;;;;;;5069873;28;20025;-73
2022/10/25 08:55:08;;;;;;;25.33;24.33;;;14.80;93.00;;;;;;5070689;28;20108;-75
2022/10/25 08:57:39;;;;;;;24.50;23.50;;;14.90;93.00;;;;;;5070218;28;20473;-74
2022/10/25 09:00:11;;;;;;;26.30;25.30;;;15.00;93.00;;;;;;5070205;28;20032;-74
2022/10/25 09:02:44;;;;;;;23.00;22.10;;;15.10;93.00;;;;;;5069456;28;20488;-74
2022/10/25 09:05:24;;;;;;;23.02;22.13;;;15.20;93.00;;;;;;5068209;28;20028;-74
2022/10/25 09:08:04;;;;;;;20.90;20.00;;;15.30;93.10;;;;;;5069812;28;20047;-76
2022/10/25 09:10:33;;;;;;;21.30;20.45;;;15.40;93.10;;;;;;5068038;28;20521;-75
2022/10/25 09:13:25;;;;;;;19.15;18.35;;;15.50;93.10;;;;;;5070075;28;20035;-75
2022/10/25 09:16:00;;;;;;;18.40;17.60;;;15.60;93.00;;;;;;5069698;28;20040;-75
2022/10/25 09:18:45;;;;;;;18.90;18.10;;;15.60;93.00;;;;;;5068244;28;20482;-75
2022/10/25 09:21:29;;;;;;;17.45;16.75;;;15.80;93.20;;;;;;5069626;28;20017;-76
2022/10/25 09:24:00;;;;;;;14.40;13.80;;;15.80;93.10;;;;;;5069424;28;20027;-78
2022/10/25 09:26:51;;;;;;;10.27;9.77;;;15.90;93.20;;;;;;5069331;28;20081;-78
2022/10/25 09:29:27;;;;;;;7.25;6.85;;;16.60;94.00;;;;;;5068803;28;20475;-78
2022/10/25 09:31:57;;;;;;;5.25;4.95;;;17.40;94.10;;;;;;5069599;28;20016;-78
2022/10/25 09:34:26;;;;;;;4.70;4.40;;;18.30;94.20;;;;;;5069618;28;20042;-77
2022/10/25 09:36:58;;;;;;;4.97;4.68;;;19.30;94.20;;;;;;5069339;28;20032;-78
2022/10/25 09:39:49;;;;;;;2.75;2.55;;;20.00;93.80;;;;;;5069315;28;20039;-70
2022/10/25 09:42:35;;;;;;;1.75;1.65;;;20.70;93.80;;;;;;5069139;28;20056;-77
2022/10/25 09:45:16;;;;;;;1.20;1.15;;;21.60;93.60;;;;;;5068821;28;20025;-76
2022/10/25 09:48:05;;;;;;;1.60;1.50;;;21.90;93.30;;;;;;5068835;28;20178;-76
2022/10/25 09:50:45;;;;;;;0.35;0.35;;;22.10;93.30;;;;;;5068902;28;20029;-74
2022/10/25 09:53:12;;;;;;;0.57;0.57;;;22.30;93.10;;;;;;5068777;28;20028;-74
2022/10/25 09:55:54;;;;;;;0.68;0.68;;;21.80;92.70;;;;;;5068922;28;20075;-72
2022/10/25 09:58:29;;;;;;;1.65;1.55;;;21.20;92.70;;;;;;5068527;28;20031;-72
2022/10/25 10:00:58;;;;;;;1.80;1.70;;;20.90;93.10;;;;;;5068376;28;20031;-72
2022/10/25 10:03:29;;;;;;;1.40;1.30;;;20.80;93.30;;;;;;5067276;28;20028;-72
2022/10/25 10:06:02;;;;;;;0.93;0.93;;;20.90;93.60;;;;;;5069701;28;20082;-72
2022/10/25 10:08:33;;;;;;;0.95;0.95;;;21.20;93.70;;;;;;5069293;28;20103;-72
2022/10/25 10:10:59;;;;;;;0.50;0.50;;;21.40;93.60;;;;;;5069349;28;20052;-72
2022/10/25 10:13:37;;;;;;;0.82;0.82;;;21.60;93.70;;;;;;5068176;28;20028;-72
2022/10/25 10:16:34;;;;;;;0.43;0.43;;;21.80;93.50;;;;;;5069447;28;20029;-72
2022/10/25 10:19:24;;;;;;;0.20;0.20;;;22.00;93.70;;;;;;5068830;28;20028;-72
2022/10/25 10:21:59;;;;;;;0.20;0.20;;;22.20;93.60;;;;;;5069331;28;20034;-75
2022/10/25 10:24:26;;;;;;;0.20;0.20;;;22.30;93.40;;;;;;5069250;28;20115;-72
2022/10/25 10:26:56;;;;;;;0.25;0.25;;;22.20;93.40;;;;;;5069533;28;20097;-72
2022/10/25 10:29:29;;;;;;;0.10;0.10;;;22.20;93.80;;;;;;5069352;28;20560;-71
2022/10/25 10:32:05;;;;;;;0.00;0.00;;;22.50;93.90;;;;;;5067376;28;20073;-72
2022/10/25 10:34:42;;;;;;;0.10;0.10;;;22.70;93.70;;;;;;5068878;28;20504;-78
2022/10/25 10:37:16;;;;;;;0.10;0.10;;;22.60;93.50;;;;;;5070161;28;20109;-77
2022/10/25 10:40:17;;;;;;;0.10;0.10;;;22.40;93.70;;;;;;5071239;28;20021;-79
2022/10/25 10:42:43;;;;;;;0.10;0.10;;;22.40;93.70;;;;;;5043781;28;20033;-81
2022/10/25 10:45:14;;;;;;;0.35;0.30;;;22.40;94.00;;;;;;5050682;28;20060;-79
2022/10/25 10:47:49;;;;;;;0.00;0.00;;;22.50;94.30;;;;;;5057162;28;20113;-79
2022/10/25 10:50:24;;;;;;;0.00;0.00;;;22.80;94.10;;;;;;5060474;28;20033;-78
2022/10/25 10:53:21;;;;;;;0.00;0.00;;;22.80;93.80;;;;;;5060448;28;20025;-76
2022/10/25 10:55:48;;;;;;;;;;;22.60;93.70;;;;;;5062314;28;20437;-78
2022/10/25 10:58:28;;;;;;;0.00;0.00;;;22.60;93.70;;;;;;5063938;28;19944;-77
2022/10/25 11:01:00;;;;;;;0.00;0.00;;;22.60;93.90;;;;;;5070533;28;20053;-80
2022/10/25 11:03:41;;;;;;;0.00;0.00;;;22.60;93.90;;;;;;5057116;28;20035;-81
2022/10/25 11:06:23;;;;;;;0.05;0.05;;;22.60;93.90;;;;;;5060369;28;20020;-79
2022/10/25 11:09:23;;;;;;;0.00;0.00;;;22.60;93.90;;;;;;5059053;28;20021;-76
2022/10/25 11:12:13;;;;;;;0.00;0.00;;;22.60;93.70;;;;;;5054957;28;20032;-78
2022/10/25 11:14:39;;;;;;;0.00;0.00;;;22.40;93.70;;;;;;5061991;28;20025;-79
2022/10/25 11:17:17;;;;;;;0.00;0.00;;;22.20;93.60;;;;;;5054530;28;20076;-73
2022/10/25 11:19:49;;;;;;;0.00;0.00;;;22.10;93.60;;;;;;5080167;28;20032;-76
2022/10/25 11:22:35;;;;;;;0.00;0.00;;;21.90;93.80;;;;;;5049207;28;20025;-78
2022/10/25 11:25:05;;;;;;;0.00;0.00;;;21.80;93.80;;;;;;5049931;28;20025;-79
2022/10/25 11:27:58;;;;;;;0.00;0.00;;;21.60;93.60;;;;;;5051244;28;20118;-78
2022/10/25 11:30:34;;;;;;;0.00;0.00;;;21.30;93.60;;;;;;5049102;28;20021;-79
2022/10/25 11:33:31;;;;;;;0.00;0.00;;;21.10;93.50;;;;;;5047873;28;20045;-78
2022/10/25 11:36:12;;;;;;;0.10;0.10;;;20.80;93.40;;;;;;5050038;28;20345;-79
2022/10/25 11:38:54;;;;;;;0.10;0.10;;;20.40;93.40;;;;;;5049960;28;20052;-75
2022/10/25 11:41:46;;;;;;;0.08;0.08;;;20.20;93.40;;;;;;5052343;28;20023;-75
2022/10/25 11:44:46;;;;;;;0.10;0.10;;;20.10;93.40;;;;;;5068660;28;20025;-78
2022/10/25 11:47:37;;;;;;;0.10;0.10;;;19.90;93.30;;;;;;5068842;28;20082;-82
2022/10/25 11:50:31;;;;;;;0.30;0.30;;;19.60;93.30;;;;;;5043539;28;20397;-78
2022/10/25 11:53:17;;;;;;;0.30;0.30;;;19.40;93.10;;;;;;5048269;28;20025;-78
2022/10/25 11:56:17;;;;;;;0.50;0.50;;;19.20;93.30;;;;;;5048626;28;20522;-80
2022/10/25 11:59:06;;;;;;;2.72;2.53;;;19.10;93.30;;;;;;5048508;28;20044;-77
2022/10/25 12:02:09;;;;;;;5.50;5.20;;;18.90;93.00;;;;;;5063328;28;20017;-78
2022/10/25 12:04:59;;;;;;;15.25;14.65;;;18.50;92.80;;;;;;5048421;28;20055;-78
2022/10/25 12:07:39;;;;;;;27.40;26.30;;;18.00;92.60;;;;;;5048433;28;20021;-78
2022/10/25 12:10:39;;;;;;;35.55;34.25;;;17.40;92.60;;;;;;5048464;28;20342;-78
2022/10/25 12:13:27;;;;;;;33.78;32.47;;;17.00;93.20;;;;;;5034121;28;20120;-78
2022/10/25 12:15:55;;;;;;;27.08;26.05;;;16.80;93.50;;;;;;5060515;28;20035;-78
2022/10/25 12:18:46;;;;;;;27.45;26.35;;;16.70;93.60;;;;;;5059833;28;20108;-78
2022/10/25 12:21:20;;;;;;;23.80;22.88;;;16.70;93.70;;;;;;5049934;28;20079;-76
2022/10/25 12:23:49;;;;;;;22.40;21.50;;;16.70;93.70;;;;;;5065130;28;20055;-81
2022/10/25 12:26:37;;;;;;;23.13;22.23;;;16.70;93.60;;;;;;5051856;28;20064;-76
2022/10/25 12:29:06;;;;;;;25.35;24.35;;;16.70;93.50;;;;;;5063649;28;20102;-81
2022/10/25 12:31:42;;;;;;;23.58;22.67;;;16.70;93.30;;;;;;5072522;28;20103;-80
2022/10/25 12:34:26;;;;;;;25.30;24.30;;;16.60;93.20;;;;;;5061696;28;20074;-79
2022/10/25 12:36:56;;;;;;;22.95;22.05;;;16.50;93.20;;;;;;5070564;28;20068;-81
2022/10/25 12:39:24;;;;;;;22.15;21.25;;;16.40;93.10;;;;;;5071042;28;20028;-81
2022/10/25 12:42:05;;;;;;;25.00;24.00;;;16.30;93.20;;;;;;5070076;28;20093;-78
2022/10/25 12:44:39;;;;;;;19.25;18.45;;;16.40;93.30;;;;;;5068996;28;20468;-77
2022/10/25 12:47:29;;;;;;;20.38;19.58;;;16.50;93.30;;;;;;5068938;28;20423;-78
2022/10/25 12:50:29;;;;;;;21.02;20.20;;;16.70;93.40;;;;;;5068250;28;20024;-77
2022/10/25 12:53:43;;;;;;;15.45;14.75;;;17.10;93.50;;;;;;5070686;28;20036;-84
2022/10/25 12:56:28;;;;;;;14.60;14.00;;;17.80;93.70;;;;;;5073983;28;20017;-81
2022/10/25 12:59:06;;;;;;;13.65;13.05;;;18.30;93.50;;;;;;5072377;28;20021;-76